Time;durP1;ratioP1;P1;durP2;ratioP2;P2;SDS_P1;SDS_P2;PMS_P1;PMS_P2;Temp;Humidity;BMP_temperature;BMP_pressure;BME280_temperature;BME280_humidity;BME280_pressure;Samples;Min_cycle;Max_cycle;Signal;HPM_P1;HPM_P2
2022/07/22 00:00:28;;;;;;;0.00;0.00;;;16.40;99.90;;;;;;5096928;28;20039;-85
2022/07/22 00:02:54;;;;;;;0.08;0.00;;;16.40;99.90;;;;;;5113954;28;20050;-88
2022/07/22 00:05:21;;;;;;;0.00;0.00;;;16.40;99.90;;;;;;5114404;28;20050;-85
2022/07/22 00:07:48;;;;;;;0.00;0.00;;;16.40;99.90;;;;;;5115044;28;20042;-88
2022/07/22 00:10:15;;;;;;;0.00;0.00;;;16.40;99.90;;;;;;5096763;28;20103;-85
2022/07/22 00:12:42;;;;;;;0.00;0.00;;;16.40;99.90;;;;;;5146488;28;20039;-88
2022/07/22 00:15:09;;;;;;;0.00;0.00;;;16.30;99.90;;;;;;5147001;28;20046;-85
2022/07/22 00:17:38;;;;;;;0.00;0.00;;;16.30;99.90;;;;;;5130725;28;20085;-88
2022/07/22 00:20:06;;;;;;;0.38;0.20;;;16.30;99.90;;;;;;5130513;28;20032;-85
2022/07/22 00:22:33;;;;;;;0.10;0.10;;;16.30;99.90;;;;;;5130800;28;20035;-87
2022/07/22 00:25:00;;;;;;;0.00;0.00;;;16.30;99.90;;;;;;5148774;28;20065;-88
2022/07/22 00:27:27;;;;;;;0.10;0.10;;;16.30;99.90;;;;;;5147945;28;20673;-85
2022/07/22 00:29:54;;;;;;;0.00;0.00;;;16.20;99.90;;;;;;5148031;28;20032;-88
2022/07/22 00:32:20;;;;;;;0.08;0.08;;;16.20;99.90;;;;;;5165058;27;20053;-85
2022/07/22 00:34:47;;;;;;;0.30;0.20;;;16.20;99.90;;;;;;5164984;27;20123;-85
2022/07/22 00:37:14;;;;;;;0.00;0.00;;;16.20;99.90;;;;;;5146807;28;20047;-88
2022/07/22 00:39:41;;;;;;;0.10;0.05;;;16.30;99.90;;;;;;5129658;28;20047;-88
2022/07/22 00:42:07;;;;;;;0.10;0.10;;;16.20;99.90;;;;;;5147296;28;20446;-85
2022/07/22 00:44:34;;;;;;;0.10;0.03;;;16.20;99.90;;;;;;5129681;28;20527;-85
2022/07/22 00:47:02;;;;;;;0.00;0.00;;;16.20;99.90;;;;;;5146749;28;20036;-87
2022/07/22 00:49:29;;;;;;;0.00;0.00;;;16.20;99.90;;;;;;5147623;28;20040;-87
2022/07/22 00:51:55;;;;;;;0.15;0.10;;;16.10;99.90;;;;;;5130707;28;20046;-87
2022/07/22 00:54:22;;;;;;;0.28;0.20;;;16.10;99.90;;;;;;5130449;28;20043;-88
2022/07/22 00:56:49;;;;;;;0.03;0.03;;;16.10;99.90;;;;;;5130644;28;20131;-85
2022/07/22 00:59:16;;;;;;;0.13;0.10;;;16.10;99.90;;;;;;5163925;27;20130;-85
2022/07/22 01:01:43;;;;;;;0.30;0.20;;;16.10;99.90;;;;;;5129094;28;20078;-87
2022/07/22 01:04:10;;;;;;;0.00;0.00;;;16.10;99.90;;;;;;5130524;28;20102;-85
2022/07/22 01:06:36;;;;;;;0.00;0.00;;;16.10;99.90;;;;;;5147816;28;20100;-88
2022/07/22 01:09:03;;;;;;;0.10;0.10;;;16.00;99.90;;;;;;5148299;28;20035;-84
2022/07/22 01:11:30;;;;;;;0.05;0.05;;;16.00;99.90;;;;;;5130606;28;20399;-87
2022/07/22 01:13:57;;;;;;;0.00;0.00;;;16.00;99.90;;;;;;5164625;28;20039;-85
2022/07/22 01:16:24;;;;;;;0.10;0.10;;;16.00;99.90;;;;;;5147254;28;20741;-85
2022/07/22 01:18:51;;;;;;;0.10;0.10;;;16.00;99.90;;;;;;5147132;28;20081;-85
2022/07/22 01:21:18;;;;;;;0.00;0.00;;;16.00;99.90;;;;;;5147784;28;20044;-85
2022/07/22 01:23:45;;;;;;;0.77;0.22;;;16.00;99.90;;;;;;5146645;28;20392;-87
2022/07/22 01:26:12;;;;;;;0.00;0.00;;;16.00;99.90;;;;;;5147759;28;20085;-85
2022/07/22 01:28:39;;;;;;;0.20;0.13;;;16.00;99.90;;;;;;5147671;28;20058;-87
2022/07/22 01:31:06;;;;;;;0.00;0.00;;;16.00;99.90;;;;;;5151215;28;20039;-85
2022/07/22 01:33:33;;;;;;;0.00;0.00;;;15.90;99.90;;;;;;5167878;27;20047;-87
2022/07/22 01:36:01;;;;;;;0.20;0.10;;;16.00;99.90;;;;;;5142485;28;20050;-87
2022/07/22 01:38:28;;;;;;;0.00;0.00;;;15.90;99.90;;;;;;5100822;28;20040;-84
2022/07/22 01:40:55;;;;;;;0.05;0.05;;;16.00;99.90;;;;;;5143136;28;20043;-85
2022/07/22 01:43:21;;;;;;;0.30;0.17;;;15.90;99.90;;;;;;5128211;28;20082;-87
2022/07/22 01:45:51;;;;;;;0.15;0.10;;;16.00;99.90;;;;;;5149194;28;20047;-87
2022/07/22 01:48:19;;;;;;;0.35;0.30;;;16.00;99.90;;;;;;5133751;28;20561;-86
2022/07/22 01:50:46;;;;;;;0.20;0.20;;;16.00;99.90;;;;;;5150598;28;20050;-87
2022/07/22 01:53:13;;;;;;;0.00;0.00;;;16.00;99.90;;;;;;5133750;28;20040;-85
2022/07/22 01:55:40;;;;;;;0.20;0.20;;;16.00;99.90;;;;;;5133883;28;20043;-86
2022/07/22 01:58:07;;;;;;;0.30;0.28;;;16.00;99.90;;;;;;5133726;28;20092;-85
2022/07/22 02:00:34;;;;;;;0.00;0.00;;;16.00;99.90;;;;;;5133657;28;20043;-84
2022/07/22 02:03:01;;;;;;;0.20;0.00;;;16.00;99.90;;;;;;5133576;28;20389;-87
2022/07/22 02:05:28;;;;;;;0.10;0.10;;;15.90;99.90;;;;;;5150616;27;20051;-88
2022/07/22 02:08:00;;;;;;;0.10;0.10;;;15.90;99.90;;;;;;5167466;27;20118;-87
2022/07/22 02:10:27;;;;;;;0.10;0.10;;;15.90;99.90;;;;;;5167474;27;20047;-87
2022/07/22 02:12:54;;;;;;;0.10;0.10;;;16.00;99.90;;;;;;5167349;27;20047;-87
2022/07/22 02:15:20;;;;;;;0.10;0.10;;;16.00;99.90;;;;;;5133532;28;20554;-87
2022/07/22 02:17:47;;;;;;;0.20;0.20;;;16.00;99.90;;;;;;5149965;28;20051;-87
2022/07/22 02:20:14;;;;;;;0.05;0.05;;;16.10;99.90;;;;;;5167191;27;20039;-85
2022/07/22 02:22:41;;;;;;;0.10;0.10;;;16.10;99.90;;;;;;5133302;28;20492;-85
2022/07/22 02:25:08;;;;;;;0.03;0.03;;;16.10;99.90;;;;;;5149477;28;20088;-87
2022/07/22 02:27:35;;;;;;;0.10;0.10;;;16.00;99.90;;;;;;5149965;28;20035;-85
2022/07/22 02:30:03;;;;;;;0.43;0.22;;;16.00;99.90;;;;;;5132879;28;20101;-85
2022/07/22 02:32:30;;;;;;;0.10;0.10;;;16.00;99.90;;;;;;5132930;28;20071;-87
2022/07/22 02:34:56;;;;;;;0.00;0.00;;;16.00;99.90;;;;;;5149934;28;20054;-88
2022/07/22 02:37:24;;;;;;;0.00;0.00;;;16.00;99.90;;;;;;5150214;28;20032;-87
2022/07/22 02:39:51;;;;;;;0.00;0.00;;;16.00;99.90;;;;;;5131417;28;20083;-85
2022/07/22 02:42:19;;;;;;;0.10;0.10;;;16.00;99.90;;;;;;5149208;28;20094;-85
2022/07/22 02:44:45;;;;;;;0.10;0.10;;;15.90;99.90;;;;;;5132759;28;20036;-88
2022/07/22 02:47:12;;;;;;;0.15;0.08;;;15.90;99.90;;;;;;5149576;28;20403;-86
2022/07/22 02:49:39;;;;;;;0.10;0.10;;;15.90;99.90;;;;;;5132254;28;20056;-85
2022/07/22 02:52:05;;;;;;;0.00;0.00;;;15.90;99.90;;;;;;5132352;28;20075;-87
2022/07/22 02:54:32;;;;;;;0.10;0.10;;;16.00;99.90;;;;;;5132851;28;20107;-85
2022/07/22 02:56:59;;;;;;;0.10;0.10;;;15.90;99.90;;;;;;5132603;28;20620;-85
2022/07/22 02:59:26;;;;;;;0.00;0.00;;;15.90;99.90;;;;;;5165832;27;20400;-85
2022/07/22 03:01:52;;;;;;;0.05;0.05;;;15.90;99.90;;;;;;5132141;28;20039;-85
2022/07/22 03:04:19;;;;;;;0.10;0.10;;;15.90;99.90;;;;;;5149373;28;20070;-84
2022/07/22 03:06:46;;;;;;;0.05;0.05;;;15.90;99.90;;;;;;5149572;28;20110;-85
2022/07/22 03:09:13;;;;;;;0.28;0.20;;;15.90;99.90;;;;;;5148609;28;20036;-84
2022/07/22 03:11:39;;;;;;;0.00;0.00;;;15.90;99.90;;;;;;5132038;28;20126;-87
2022/07/22 03:14:06;;;;;;;0.00;0.00;;;15.90;99.90;;;;;;5131969;28;20043;-85
2022/07/22 03:16:33;;;;;;;0.13;0.10;;;15.90;99.90;;;;;;5148937;28;20126;-85
2022/07/22 03:19:00;;;;;;;0.10;0.10;;;15.90;99.90;;;;;;5131644;28;20202;-87
2022/07/22 03:21:27;;;;;;;0.10;0.10;;;15.90;99.90;;;;;;5148867;28;20036;-85
2022/07/22 03:23:53;;;;;;;0.00;0.00;;;15.80;99.90;;;;;;5148908;28;20035;-87
2022/07/22 03:26:23;;;;;;;0.15;0.13;;;15.80;99.90;;;;;;5148715;28;20088;-85
2022/07/22 03:28:51;;;;;;;0.08;0.08;;;15.80;99.90;;;;;;5148629;28;20040;-86
2022/07/22 03:31:18;;;;;;;0.05;0.05;;;15.70;99.90;;;;;;5148889;28;20039;-87
2022/07/22 03:33:45;;;;;;;0.10;0.10;;;15.70;99.90;;;;;;5165436;27;20040;-84
2022/07/22 03:36:12;;;;;;;0.08;0.08;;;15.70;99.90;;;;;;5131075;28;20050;-84
2022/07/22 03:38:38;;;;;;;0.10;0.10;;;15.70;99.90;;;;;;5130995;28;20125;-87
2022/07/22 03:41:05;;;;;;;0.00;0.00;;;15.80;99.90;;;;;;5147976;28;20130;-86
2022/07/22 03:43:32;;;;;;;0.17;0.17;;;15.80;99.90;;;;;;5164879;27;20079;-87
2022/07/22 03:45:59;;;;;;;0.10;0.10;;;15.80;99.90;;;;;;5130688;28;20067;-87
2022/07/22 03:48:26;;;;;;;0.10;0.10;;;15.80;99.90;;;;;;5148461;28;20035;-87
2022/07/22 03:50:53;;;;;;;0.10;0.10;;;15.90;99.90;;;;;;5130284;28;20502;-87
2022/07/22 03:53:20;;;;;;;0.10;0.10;;;15.90;99.90;;;;;;5130703;28;20089;-86
2022/07/22 03:55:47;;;;;;;0.10;0.10;;;15.80;99.90;;;;;;5130894;28;20083;-85
2022/07/22 03:58:17;;;;;;;0.00;0.00;;;15.90;99.90;;;;;;5131369;28;20035;-86
2022/07/22 04:00:44;;;;;;;0.20;0.10;;;15.80;99.90;;;;;;5131875;28;20110;-88
2022/07/22 04:03:11;;;;;;;0.00;0.00;;;15.80;99.90;;;;;;5147546;28;20043;-85
2022/07/22 04:05:38;;;;;;;0.10;0.10;;;15.80;99.90;;;;;;5148294;28;20499;-85
2022/07/22 04:08:04;;;;;;;0.40;0.20;;;15.70;99.90;;;;;;5130256;28;20035;-85
2022/07/22 04:10:31;;;;;;;0.10;0.10;;;15.80;99.90;;;;;;5164869;27;20047;-88
2022/07/22 04:12:58;;;;;;;0.08;0.08;;;15.80;99.90;;;;;;5147689;28;20075;-87
2022/07/22 04:15:25;;;;;;;0.28;0.20;;;15.80;99.90;;;;;;5147778;28;20047;-88
2022/07/22 04:17:52;;;;;;;0.20;0.20;;;15.90;99.90;;;;;;5147513;28;20100;-85
2022/07/22 04:20:18;;;;;;;0.20;0.10;;;15.90;99.90;;;;;;5130604;28;20044;-87
2022/07/22 04:22:45;;;;;;;0.10;0.10;;;15.90;99.90;;;;;;5147906;28;20035;-88
2022/07/22 04:25:12;;;;;;;0.10;0.10;;;15.90;99.90;;;;;;5131246;28;20047;-87
2022/07/22 04:27:39;;;;;;;0.30;0.00;;;15.90;99.90;;;;;;5131351;28;20036;-88
2022/07/22 04:30:06;;;;;;;0.00;0.00;;;15.80;99.90;;;;;;5130196;28;20043;-85
2022/07/22 04:32:33;;;;;;;0.00;0.00;;;15.80;99.90;;;;;;5136997;28;20490;-88
2022/07/22 04:34:59;;;;;;;0.00;0.00;;;15.80;99.90;;;;;;5093738;28;20090;-84
2022/07/22 04:37:29;;;;;;;0.30;0.13;;;15.80;99.90;;;;;;5131416;28;20035;-85
2022/07/22 04:39:56;;;;;;;0.00;0.00;;;15.80;99.90;;;;;;5141200;28;20051;-87
2022/07/22 04:42:23;;;;;;;0.00;0.00;;;15.80;99.90;;;;;;5127040;28;20040;-87
2022/07/22 04:44:49;;;;;;;0.10;0.10;;;15.90;99.90;;;;;;5130643;28;20035;-84
2022/07/22 04:47:16;;;;;;;0.10;0.10;;;15.80;99.90;;;;;;5099551;28;20076;-87
2022/07/22 04:49:43;;;;;;;0.17;0.17;;;15.90;99.90;;;;;;5113874;28;20032;-88
2022/07/22 04:52:09;;;;;;;2.80;0.40;;;15.90;99.90;;;;;;5096607;28;20435;-85
2022/07/22 04:54:36;;;;;;;0.10;0.10;;;15.90;99.90;;;;;;5097105;28;20040;-88
2022/07/22 04:57:03;;;;;;;0.22;0.20;;;15.80;99.90;;;;;;5113143;28;20039;-85
2022/07/22 04:59:30;;;;;;;0.10;0.00;;;15.90;99.90;;;;;;5109953;28;20093;-88
2022/07/22 05:01:57;;;;;;;0.20;0.15;;;15.90;99.90;;;;;;5109985;28;20052;-87
2022/07/22 05:04:23;;;;;;;0.20;0.10;;;15.90;99.90;;;;;;5112845;28;20040;-87
2022/07/22 05:06:50;;;;;;;0.00;0.00;;;15.90;99.90;;;;;;5097648;28;20040;-87
2022/07/22 05:09:17;;;;;;;0.10;0.10;;;15.90;99.90;;;;;;5146020;28;20480;-85
2022/07/22 05:11:43;;;;;;;0.10;0.10;;;15.90;99.90;;;;;;5151688;28;20053;-85
2022/07/22 05:14:10;;;;;;;0.20;0.15;;;15.90;99.90;;;;;;5150990;28;20044;-88
2022/07/22 05:16:37;;;;;;;0.55;0.05;;;15.90;99.90;;;;;;5168203;27;20126;-85
2022/07/22 05:19:05;;;;;;;0.65;0.55;;;15.90;99.90;;;;;;5150674;28;20052;-85
2022/07/22 05:21:32;;;;;;;0.13;0.08;;;15.90;99.90;;;;;;5127582;28;20040;-85
2022/07/22 05:23:59;;;;;;;0.43;0.10;;;16.00;99.90;;;;;;5125406;28;20180;-85
2022/07/22 05:26:29;;;;;;;0.10;0.10;;;16.00;99.90;;;;;;5137484;28;20066;-85
2022/07/22 05:28:55;;;;;;;0.00;0.00;;;16.00;99.90;;;;;;5140233;27;20413;-85
2022/07/22 05:31:22;;;;;;;0.10;0.10;;;16.10;99.90;;;;;;5102234;28;20036;-88
2022/07/22 05:33:49;;;;;;;0.10;0.10;;;16.10;99.90;;;;;;5147663;28;20851;-88
2022/07/22 05:36:16;;;;;;;0.32;0.25;;;16.10;99.90;;;;;;5107225;28;20039;-85
2022/07/22 05:38:42;;;;;;;0.10;0.10;;;16.10;99.90;;;;;;5138008;28;20047;-85
2022/07/22 05:41:09;;;;;;;0.00;0.00;;;16.10;99.90;;;;;;5142306;28;20097;-88
2022/07/22 05:43:36;;;;;;;0.80;0.35;;;16.10;99.90;;;;;;5128544;28;20043;-88
2022/07/22 05:46:03;;;;;;;0.10;0.10;;;16.10;99.90;;;;;;5150302;28;20032;-85
2022/07/22 05:48:29;;;;;;;0.10;0.10;;;16.10;99.90;;;;;;5138532;28;20032;-85
2022/07/22 05:50:56;;;;;;;0.57;0.30;;;16.10;99.90;;;;;;5099930;28;20048;-86
2022/07/22 05:53:23;;;;;;;0.00;0.00;;;16.10;99.90;;;;;;5150571;28;20074;-85
2022/07/22 05:55:50;;;;;;;0.00;0.00;;;16.10;99.90;;;;;;5133431;28;20046;-88
2022/07/22 05:58:16;;;;;;;0.10;0.10;;;16.10;99.90;;;;;;5149999;28;20047;-85
2022/07/22 06:00:43;;;;;;;0.20;0.20;;;16.20;99.90;;;;;;5150429;28;20047;-85
2022/07/22 06:03:10;;;;;;;0.15;0.13;;;16.20;99.90;;;;;;5133505;28;20042;-87
2022/07/22 06:05:37;;;;;;;0.10;0.10;;;16.20;99.90;;;;;;5133011;28;20777;-88
2022/07/22 06:08:04;;;;;;;0.10;0.10;;;16.20;99.90;;;;;;5149891;28;20039;-85
2022/07/22 06:10:31;;;;;;;0.40;0.15;;;16.20;99.90;;;;;;5149204;28;20066;-88
2022/07/22 06:12:58;;;;;;;0.10;0.10;;;16.30;99.90;;;;;;5141550;28;20056;-87
2022/07/22 06:15:24;;;;;;;0.00;0.00;;;16.30;99.90;;;;;;5132630;28;20046;-87
2022/07/22 06:17:51;;;;;;;0.15;0.10;;;16.30;99.90;;;;;;5150400;28;20043;-88
2022/07/22 06:20:18;;;;;;;0.17;0.13;;;16.30;99.90;;;;;;5150038;28;20050;-85
2022/07/22 06:22:45;;;;;;;0.00;0.00;;;16.30;99.90;;;;;;5135335;28;20040;-86
2022/07/22 06:25:11;;;;;;;0.10;0.10;;;16.30;99.90;;;;;;5107062;28;20038;-88
2022/07/22 06:27:38;;;;;;;0.10;0.10;;;16.30;99.90;;;;;;5124592;28;20419;-85
2022/07/22 06:30:06;;;;;;;0.10;0.10;;;16.30;99.90;;;;;;5150338;28;20122;-87
2022/07/22 06:32:33;;;;;;;0.20;0.17;;;16.30;99.90;;;;;;5120151;28;20084;-86
2022/07/22 06:34:59;;;;;;;0.00;0.00;;;16.30;99.90;;;;;;5147781;27;20032;-86
2022/07/22 06:37:26;;;;;;;0.00;0.00;;;16.40;99.90;;;;;;5133107;28;20480;-88
2022/07/22 06:39:53;;;;;;;0.20;0.10;;;16.40;99.90;;;;;;5134935;28;20092;-87
2022/07/22 06:42:20;;;;;;;0.13;0.10;;;16.40;99.90;;;;;;5145931;28;20079;-88
2022/07/22 06:44:46;;;;;;;0.22;0.20;;;16.40;99.90;;;;;;5133315;28;20039;-85
2022/07/22 06:47:13;;;;;;;0.10;0.10;;;16.40;99.90;;;;;;5149610;27;20564;-85
2022/07/22 06:49:40;;;;;;;0.10;0.10;;;16.40;99.90;;;;;;5146313;28;20039;-87
2022/07/22 06:52:06;;;;;;;0.00;0.00;;;16.40;99.90;;;;;;5099507;28;20036;-86
2022/07/22 06:54:33;;;;;;;0.38;0.17;;;16.40;99.90;;;;;;5098995;28;20045;-86
2022/07/22 06:57:00;;;;;;;0.10;0.10;;;16.50;99.90;;;;;;5115694;28;20088;-88
2022/07/22 06:59:26;;;;;;;0.10;0.10;;;16.50;99.90;;;;;;5098820;28;20047;-85
2022/07/22 07:01:53;;;;;;;0.35;0.20;;;16.60;99.90;;;;;;5098896;28;20037;-85
2022/07/22 07:04:20;;;;;;;0.03;0.03;;;16.60;99.90;;;;;;5098600;28;20480;-85
2022/07/22 07:06:46;;;;;;;0.10;0.10;;;16.80;99.90;;;;;;5132930;28;20036;-88
2022/07/22 07:09:13;;;;;;;0.00;0.00;;;16.70;99.90;;;;;;5148198;28;20078;-85
2022/07/22 07:11:40;;;;;;;0.10;0.10;;;16.80;99.90;;;;;;5166181;27;20043;-85
2022/07/22 07:14:07;;;;;;;0.03;0.03;;;16.80;99.90;;;;;;5132330;28;20040;-89
2022/07/22 07:16:33;;;;;;;0.17;0.17;;;16.70;99.90;;;;;;5149216;28;20040;-88
2022/07/22 07:19:00;;;;;;;0.00;0.00;;;16.80;99.90;;;;;;5149206;28;20487;-85
2022/07/22 07:21:27;;;;;;;0.10;0.10;;;16.90;99.90;;;;;;5131470;28;20168;-89
2022/07/22 07:23:53;;;;;;;0.00;0.00;;;17.00;99.90;;;;;;5132182;28;20031;-86
2022/07/22 07:26:20;;;;;;;0.85;0.22;;;17.00;99.90;;;;;;5143972;28;20061;-85
2022/07/22 07:28:47;;;;;;;0.00;0.00;;;17.10;99.90;;;;;;5118390;28;20036;-86
2022/07/22 07:31:14;;;;;;;0.20;0.20;;;17.20;99.90;;;;;;5094871;28;20039;-85
2022/07/22 07:33:40;;;;;;;0.10;0.10;;;17.30;99.90;;;;;;5137556;27;20100;-86
2022/07/22 07:36:07;;;;;;;0.10;0.10;;;17.20;99.90;;;;;;5148981;28;20039;-88
2022/07/22 07:38:35;;;;;;;0.10;0.10;;;17.20;99.90;;;;;;5143876;28;20092;-92
2022/07/22 07:41:02;;;;;;;0.10;0.10;;;17.20;99.90;;;;;;5119923;28;20056;-89
2022/07/22 07:43:29;;;;;;;0.00;0.00;;;17.30;99.90;;;;;;5131449;28;20039;-84
2022/07/22 07:45:56;;;;;;;0.10;0.10;;;17.30;99.90;;;;;;5148675;28;20499;-93
2022/07/22 07:48:23;;;;;;;0.00;0.00;;;17.40;99.90;;;;;;5098136;28;20456;-92
2022/07/22 07:50:50;;;;;;;0.20;0.20;;;17.50;99.90;;;;;;5165610;27;20043;-92
2022/07/22 07:53:17;;;;;;;0.30;0.20;;;17.50;99.90;;;;;;5150045;28;20131;-87
2022/07/22 07:55:44;;;;;;;0.10;0.10;;;17.60;99.90;;;;;;5148777;28;20040;-87
2022/07/22 07:58:10;;;;;;;0.10;0.08;;;17.60;99.90;;;;;;5131468;28;20446;-86
2022/07/22 08:00:42;;;;;;;0.10;0.10;;;17.60;99.90;;;;;;5162519;27;20092;-92
2022/07/22 08:03:09;;;;;;;0.25;0.20;;;17.60;99.90;;;;;;5165241;27;20062;-87
2022/07/22 08:05:38;;;;;;;0.00;0.00;;;17.60;99.90;;;;;;5131803;28;20104;-94
2022/07/22 08:08:06;;;;;;;0.10;0.10;;;17.70;99.90;;;;;;5113799;28;20036;-86
2022/07/22 08:10:33;;;;;;;0.10;0.10;;;17.80;99.90;;;;;;5112764;28;20556;-87
2022/07/22 08:13:00;;;;;;;0.20;0.20;;;17.80;99.90;;;;;;5114652;28;20039;-91
2022/07/22 08:15:27;;;;;;;0.00;0.00;;;17.90;99.90;;;;;;5114373;28;20047;-86
2022/07/22 08:17:54;;;;;;;0.00;0.00;;;17.80;99.90;;;;;;5110836;28;20473;-86
2022/07/22 08:20:23;;;;;;;0.10;0.10;;;17.90;99.90;;;;;;5127046;28;20134;-87
2022/07/22 08:22:51;;;;;;;0.00;0.00;;;17.80;99.90;;;;;;5162191;27;20447;-90
2022/07/22 08:25:18;;;;;;;0.28;0.13;;;17.90;99.90;;;;;;5164965;27;20039;-86
2022/07/22 08:27:45;;;;;;;0.00;0.00;;;17.90;99.90;;;;;;5129774;28;20085;-86
2022/07/22 08:30:12;;;;;;;0.20;0.10;;;18.00;99.90;;;;;;5164280;27;20042;-86
2022/07/22 08:32:39;;;;;;;0.10;0.10;;;17.90;99.90;;;;;;5130837;28;20036;-92
2022/07/22 08:35:07;;;;;;;0.35;0.05;;;18.00;99.90;;;;;;5164178;27;20092;-93
2022/07/22 08:37:33;;;;;;;0.10;0.10;;;18.00;99.90;;;;;;5130001;28;20047;-85
2022/07/22 08:40:00;;;;;;;0.20;0.20;;;18.00;99.90;;;;;;5113255;28;20518;-92
2022/07/22 08:42:27;;;;;;;0.17;0.10;;;18.00;99.90;;;;;;5113459;28;20044;-86
2022/07/22 08:44:55;;;;;;;0.38;0.20;;;18.00;99.90;;;;;;5114501;28;20126;-86
2022/07/22 08:47:25;;;;;;;0.10;0.10;;;18.10;99.90;;;;;;5113630;28;20032;-92
2022/07/22 08:49:52;;;;;;;0.00;0.00;;;18.20;99.90;;;;;;5131850;28;20047;-85
2022/07/22 08:52:19;;;;;;;0.52;0.20;;;18.20;99.90;;;;;;5147377;28;20046;-92
2022/07/22 08:54:45;;;;;;;0.55;0.30;;;18.30;99.90;;;;;;5112586;28;20065;-86
2022/07/22 08:57:12;;;;;;;0.28;0.13;;;18.10;99.90;;;;;;5113590;28;20046;-86
2022/07/22 08:59:53;;;;;;;0.10;0.10;;;18.00;99.90;;;;;;5096589;28;20044;-86
2022/07/22 09:02:21;;;;;;;0.00;0.00;;;17.90;99.90;;;;;;5130457;28;20497;-93
2022/07/22 09:04:53;;;;;;;0.25;0.10;;;17.90;99.90;;;;;;5148117;28;20116;-92
2022/07/22 09:07:27;;;;;;;0.00;0.00;;;18.00;99.90;;;;;;5131464;28;20035;-93
2022/07/22 09:09:55;;;;;;;0.57;0.30;;;18.10;99.90;;;;;;5147934;28;20122;-92
2022/07/22 09:12:22;;;;;;;1.00;0.30;;;18.30;99.90;;;;;;5108024;28;20127;-87
2022/07/22 09:14:52;;;;;;;0.40;0.20;;;18.40;99.90;;;;;;5130810;28;20039;-89
2022/07/22 09:17:27;;;;;;;0.00;0.00;;;18.50;99.90;;;;;;5110780;28;20043;-92
2022/07/22 09:19:59;;;;;;;0.00;0.00;;;18.50;99.90;;;;;;5110133;28;20122;-93
2022/07/22 09:22:42;;;;;;;0.10;0.10;;;18.50;99.90;;;;;;5116806;28;20040;-87
2022/07/22 09:25:25;;;;;;;0.20;0.17;;;18.50;99.90;;;;;;5143726;28;20066;-88
2022/07/22 09:27:55;;;;;;;0.00;0.00;;;18.50;99.90;;;;;;5124002;28;20047;-93
2022/07/22 09:30:25;;;;;;;0.10;0.10;;;18.50;99.90;;;;;;5132595;28;20079;-92
2022/07/22 09:32:54;;;;;;;0.17;0.10;;;18.50;99.90;;;;;;5114096;28;20040;-88
2022/07/22 09:35:21;;;;;;;0.10;0.10;;;18.50;99.90;;;;;;5117535;28;20114;-88
2022/07/22 09:37:59;;;;;;;0.10;0.10;;;18.50;99.90;;;;;;5113424;28;20082;-93
2022/07/22 09:40:29;;;;;;;0.13;0.13;;;18.40;99.90;;;;;;5146967;28;20058;-92
2022/07/22 09:43:00;;;;;;;0.10;0.10;;;18.20;99.90;;;;;;5125916;28;20036;-93
2022/07/22 09:45:30;;;;;;;0.10;0.10;;;18.30;99.90;;;;;;5115244;28;20044;-87
2022/07/22 09:47:59;;;;;;;0.00;0.00;;;18.20;99.90;;;;;;5130381;28;20039;-87
2022/07/22 09:50:34;;;;;;;1.35;0.20;;;18.30;99.90;;;;;;5131154;28;20035;-87
2022/07/22 09:53:00;;;;;;;0.10;0.10;;;18.10;99.90;;;;;;5117224;28;20036;-91
2022/07/22 09:55:28;;;;;;;0.08;0.08;;;18.00;99.90;;;;;;5116698;28;20100;-92
2022/07/22 09:57:57;;;;;;;0.08;0.08;;;18.00;99.90;;;;;;5135064;28;20106;-87
2022/07/22 10:00:26;;;;;;;0.03;0.03;;;18.00;99.90;;;;;;5134407;28;20044;-87
2022/07/22 10:02:54;;;;;;;0.30;0.28;;;18.00;99.90;;;;;;5151379;28;20465;-93
2022/07/22 10:05:27;;;;;;;0.03;0.03;;;18.00;99.90;;;;;;5133773;28;20046;-91
2022/07/22 10:07:54;;;;;;;0.00;0.00;;;18.00;99.90;;;;;;5151882;28;20043;-93
2022/07/22 10:10:24;;;;;;;0.32;0.20;;;18.00;99.90;;;;;;5117424;28;20684;-92
2022/07/22 10:12:53;;;;;;;0.10;0.10;;;18.00;99.90;;;;;;5119591;28;20484;-92
2022/07/22 10:15:21;;;;;;;0.10;0.10;;;18.10;99.90;;;;;;5127265;28;20106;-92
2022/07/22 10:17:50;;;;;;;0.20;0.20;;;18.10;99.90;;;;;;5125517;28;20118;-87
2022/07/22 10:20:20;;;;;;;0.00;0.00;;;18.10;99.90;;;;;;5150121;27;20485;-92
2022/07/22 10:22:58;;;;;;;0.00;0.00;;;18.10;99.90;;;;;;5144172;28;20121;-92
2022/07/22 10:25:28;;;;;;;0.00;0.00;;;18.20;99.90;;;;;;5126639;28;20063;-87
2022/07/22 10:28:03;;;;;;;0.15;0.15;;;18.10;99.90;;;;;;5167868;27;20507;-87
2022/07/22 10:30:31;;;;;;;0.20;0.17;;;18.20;99.90;;;;;;5133516;28;20585;-89
2022/07/22 10:33:06;;;;;;;0.20;0.10;;;18.20;99.90;;;;;;5167102;27;20405;-88
2022/07/22 10:35:36;;;;;;;0.20;0.10;;;18.20;99.90;;;;;;5162028;27;20032;-92
2022/07/22 10:38:06;;;;;;;0.00;0.00;;;18.10;99.90;;;;;;5133655;28;20039;-92
2022/07/22 10:40:50;;;;;;;0.03;0.03;;;18.20;99.90;;;;;;5150169;28;20051;-91
2022/07/22 10:43:22;;;;;;;0.00;0.00;;;18.30;99.90;;;;;;5116983;28;20064;-92
2022/07/22 10:46:02;;;;;;;0.00;0.00;;;18.40;99.90;;;;;;5150895;27;20027;-88
2022/07/22 10:48:32;;;;;;;0.17;0.17;;;18.40;99.90;;;;;;5185267;27;20031;-92
2022/07/22 10:51:21;;;;;;;0.10;0.10;;;18.50;99.90;;;;;;5167591;27;20040;-91
2022/07/22 10:53:59;;;;;;;0.00;0.00;;;18.70;99.90;;;;;;5149832;28;20127;-88
2022/07/22 10:56:34;;;;;;;0.10;0.10;;;18.80;99.90;;;;;;5140228;28;20031;-92
2022/07/22 10:59:13;;;;;;;0.05;0.00;;;18.90;99.90;;;;;;5110961;28;20047;-89
2022/07/22 11:01:43;;;;;;;0.20;0.13;;;18.90;99.90;;;;;;5136483;28;20035;-90
2022/07/22 11:04:31;;;;;;;0.00;0.00;;;19.00;99.90;;;;;;5159912;27;20039;-87
2022/07/22 11:06:58;;;;;;;0.10;0.10;;;19.10;99.90;;;;;;5123701;28;20073;-87
2022/07/22 11:09:32;;;;;;;0.20;0.17;;;19.10;99.90;;;;;;5127649;28;20554;-87
2022/07/22 11:11:59;;;;;;;0.13;0.10;;;19.20;99.90;;;;;;5146749;28;20042;-92
2022/07/22 11:14:31;;;;;;;0.10;0.10;;;19.40;99.90;;;;;;5130337;28;20130;-90
2022/07/22 11:17:14;;;;;;;0.00;0.00;;;19.50;99.90;;;;;;5129302;28;20040;-87
2022/07/22 11:19:41;;;;;;;0.03;0.03;;;19.50;99.90;;;;;;5134049;28;20044;-87
2022/07/22 11:22:10;;;;;;;0.10;0.10;;;19.60;99.90;;;;;;5122757;28;20138;-92
2022/07/22 11:24:39;;;;;;;0.00;0.00;;;19.60;99.90;;;;;;5126717;28;20031;-87
2022/07/22 11:27:15;;;;;;;0.03;0.03;;;19.50;99.90;;;;;;5148117;28;20028;-86
2022/07/22 11:29:47;;;;;;;0.13;0.10;;;19.50;99.90;;;;;;5131313;28;20494;-88
2022/07/22 11:32:14;;;;;;;0.30;0.20;;;19.60;99.90;;;;;;5132104;28;20496;-87
2022/07/22 11:34:46;;;;;;;0.00;0.00;;;19.50;99.90;;;;;;5165752;27;20040;-87
2022/07/22 11:37:14;;;;;;;0.15;0.10;;;19.50;99.90;;;;;;5132028;28;20047;-92
2022/07/22 11:39:41;;;;;;;0.00;0.00;;;19.60;99.90;;;;;;5148143;28;20500;-87
2022/07/22 11:42:08;;;;;;;0.10;0.10;;;19.70;99.90;;;;;;5148628;28;20134;-92
2022/07/22 11:44:37;;;;;;;0.20;0.10;;;19.80;99.90;;;;;;5149104;28;20071;-87
2022/07/22 11:47:06;;;;;;;0.00;0.00;;;19.60;99.90;;;;;;5114097;28;20032;-92
2022/07/22 11:49:35;;;;;;;0.20;0.03;;;19.70;99.90;;;;;;5132499;28;20039;-92
2022/07/22 11:52:11;;;;;;;0.10;0.10;;;19.80;99.90;;;;;;5148484;28;20035;-92
2022/07/22 11:54:40;;;;;;;0.00;0.00;;;19.70;99.90;;;;;;5126108;28;20040;-88
2022/07/22 11:57:07;;;;;;;0.25;0.20;;;19.60;99.90;;;;;;5160547;27;20032;-87
2022/07/22 11:59:35;;;;;;;0.50;0.20;;;19.40;99.90;;;;;;5177439;27;20162;-92
2022/07/22 12:02:04;;;;;;;0.13;0.10;;;19.40;99.90;;;;;;5097911;28;20062;-92
2022/07/22 12:04:32;;;;;;;0.05;0.05;;;19.40;99.90;;;;;;5132074;28;20031;-92
2022/07/22 12:07:01;;;;;;;0.00;0.00;;;19.40;99.90;;;;;;5130664;28;20040;-88
2022/07/22 12:09:33;;;;;;;0.08;0.08;;;19.30;99.90;;;;;;5165578;27;20039;-87
2022/07/22 12:12:00;;;;;;;0.00;0.00;;;19.30;99.90;;;;;;5148097;28;20090;-86
2022/07/22 12:14:29;;;;;;;0.00;0.00;;;19.40;99.90;;;;;;5127735;28;20040;-87
2022/07/22 12:17:03;;;;;;;0.10;0.10;;;19.40;99.90;;;;;;5159304;27;20055;-90
2022/07/22 12:19:32;;;;;;;0.10;0.10;;;19.50;99.90;;;;;;5151774;27;20035;-91
2022/07/22 12:22:08;;;;;;;0.10;0.10;;;19.60;99.90;;;;;;5130379;28;20086;-84
2022/07/22 12:24:41;;;;;;;0.10;0.10;;;19.60;99.90;;;;;;5131043;28;20040;-88
2022/07/22 12:27:18;;;;;;;0.00;0.00;;;19.80;99.90;;;;;;5147461;28;20687;-83
2022/07/22 12:29:46;;;;;;;0.00;0.00;;;19.90;99.90;;;;;;5109958;28;20093;-87
2022/07/22 12:32:23;;;;;;;0.08;0.00;;;20.00;99.90;;;;;;5128030;28;20047;-88
2022/07/22 12:34:56;;;;;;;0.00;0.00;;;20.10;99.90;;;;;;5126510;28;20532;-86
2022/07/22 12:37:29;;;;;;;0.00;0.00;;;20.10;99.90;;;;;;5163677;27;20553;-84
2022/07/22 12:40:05;;;;;;;0.13;0.08;;;20.00;99.90;;;;;;5143600;28;20063;-86
2022/07/22 12:42:38;;;;;;;0.00;0.00;;;20.00;99.90;;;;;;5143348;28;20079;-84
2022/07/22 12:45:16;;;;;;;0.00;0.00;;;19.90;99.90;;;;;;5143095;28;20040;-86
2022/07/22 12:47:49;;;;;;;0.40;0.13;;;19.90;99.90;;;;;;5143408;28;20370;-83
2022/07/22 12:50:43;;;;;;;0.28;0.15;;;19.80;99.90;;;;;;5129285;28;20043;-86
2022/07/22 12:53:13;;;;;;;0.17;0.10;;;19.70;99.90;;;;;;5129733;28;20048;-86